• Join FlightAware (Why Join?)
  • Login
  • US Flag 
07:49AM EST


 

Airport Tracker/Info


-or-


 

Live Flight TrackerFlight Track Log ✈ KEN1511 ✈ 03-Jul-2014 ✈ KCLM - KBFI

Flight Track Log - Related Links

Times and Time Zones

All times are in EDT time to prevent confusion due to time zone crossing. See the KEN1511 flight status page for this flight to view local times or setup timezone preferences in your user account.

Time Position Orientation Groundspeed Altitude Reporting Facility
EDT Latitude Longitude Course Direction KTS MPH feet Rate Location/Type
06:23PM 48.1372 -123.4725 91° East 144 166 1,700  Level Seattle Center
06:23PM 48.1369 -123.4361 91° East 158 182 2,000 619 Climbing Seattle Center
06:24PM 48.1375 -123.3661 89° East 163 188 2,700 645 Climbing Seattle Center
06:25PM 48.1392 -123.3022 88° East 158 182 3,300 298 Climbing Seattle Center
06:26PM 48.1289 -123.2347 103° East 171 197 3,300  Level Seattle Center
06:27PM 48.1156 -123.1558 104° East 171 197 3,300  Level Seattle Center
06:28PM 48.1142 -123.1444 100° East 171 197 3,300  Level Seattle Center
06:30PM 48.0894 -123.0158 106° East 164 189 3,300  Level Seattle Center
06:30PM 48.0764 -122.9653 111° Southeast 160 184 3,300  Level Seattle Center
06:31PM 48.0731 -122.9539 114° Southeast 162 186 3,300  Level Seattle Center
06:31PM 48.0575 -122.8997 113° Southeast 162 186 3,300  Level Seattle Center
06:32PM 48.0564 -122.8914 101° East 162 186 3,300 -98 Level Seattle Center
06:32PM 48.0417 -122.8367 112° Southeast 159 183 3,200 -197 Descending Seattle Center
06:33PM 48.0394 -122.8294 115° Southeast 162 186 3,100 -247 Descending Seattle Center
06:34PM 48.0139 -122.7733 124° Southeast 164 189 2,900 -150 Descending Seattle Center
06:34PM 47.9972 -122.7550 144° Southeast 168 193 2,900  Level Seattle Center
06:35PM 47.9778 -122.7311 141° Southeast 164 189 2,900 109 Level Seattle Center
06:35PM 47.9656 -122.7164 141° Southeast 161 185 3,000 98 Climbing Seattle Center
06:36PM 47.9361 -122.6881 147° Southeast 161 185 3,000 -98 Level Seattle Center
06:36PM 47.9292 -122.6769 133° Southeast 159 183 2,900  Descending Seattle Center
06:37PM 47.9011 -122.6497 147° Southeast 160 184 3,000 35 Climbing Seattle Center
06:39PM 47.8281 -122.5711 146° Southeast 159 183 3,000 -45 Level Seattle Center
06:39PM 47.8214 -122.5644 146° Southeast 156 180 2,900 -98 Descending Seattle Center
06:40PM 47.7933 -122.5342 144° Southeast 156 180 2,900 98 Level Seattle Center
06:40PM 47.7847 -122.5253 145° Southeast 158 182 3,000 -97 Climbing Seattle Center
06:41PM 47.7536 -122.4986 150° Southeast 155 178 2,800 -268 Descending Seattle Center
06:42PM 47.7161 -122.4647 149° Southeast 156 180 2,500 -361 Descending Seattle Center
06:44PM 47.6419 -122.3975 149° Southeast 156 180 1,700 -409 Descending Seattle Center
06:44PM 47.6361 -122.3933 154° Southeast 156 180 1,600 -338 Descending Seattle Center
06:45PM 47.5964 -122.3592 150° Southeast 157 181 1,300 -425 Descending Seattle Center
06:46PM 47.5667 -122.3342 150° Southeast 146 168 800 -584 Descending Seattle Center
06:47PM 47.5350 -122.3072 150° Southeast 138 159 200 -590 Descending Seattle Center
06:49PM 47.5300 -122.3020 146° Southeast  Level Estimated
06:56PM 47.5300 -122.3020 146° Southeast  Level Estimated
06:57PM 47.5300 -122.3020 174° South  Level Estimated
06:58PM 47.5300 -122.3020 146° Southeast  Level Estimated
06:59PM 47.5300 -122.3020 174° South  Level Estimated
07:00PM 47.5300 -122.3020 146° Southeast  Level Estimated
07:01PM 47.5300 -122.3020 174° South  Level Estimated
07:02PM 47.5300 -122.3020 146° Southeast  Level Estimated
07:03PM 47.5300 -122.3020 174° South  Level Estimated